Time;durP1;ratioP1;P1;durP2;ratioP2;P2;SDS_P1;SDS_P2;PMS_P1;PMS_P2;Temp;Humidity;BMP_temperature;BMP_pressure;BME280_temperature;BME280_humidity;BME280_pressure;Samples;Min_cycle;Max_cycle;Signal;HPM_P1;HPM_P2
2022/08/28 00:02:04;;;;;;;7.10;5.85;;;;;;;;;;5072640;28;20099;-74
2022/08/28 00:04:30;;;;;;;7.85;6.35;;;;;;;;;;5072748;28;20407;-72
2022/08/28 00:06:56;;;;;;;7.38;6.65;;;;;;;;;;5073100;28;20032;-74
2022/08/28 00:09:22;;;;;;;9.68;7.55;;;;;;;;;;5054400;28;20061;-74
2022/08/28 00:11:49;;;;;;;10.52;8.00;;;;;;;;;;5055100;28;20029;-74
2022/08/28 00:14:17;;;;;;;10.23;8.93;;;;;;;;;;5054205;28;20468;-75
2022/08/28 00:16:44;;;;;;;13.10;10.45;;;;;;;;;;5072797;28;20029;-74
2022/08/28 00:19:11;;;;;;;13.98;11.65;;;;;;;;;;5060143;28;20054;-74
2022/08/28 00:21:37;;;;;;;14.60;11.65;;;;;;;;;;5080542;28;20037;-74
2022/08/28 00:24:03;;;;;;;15.25;11.23;;;;;;;;;;5084157;28;20024;-72
2022/08/28 00:29:13;;;;;;;15.50;13.05;;;;;;;;;;5078923;28;20043;-74
2022/08/28 00:31:40;;;;;;;22.08;14.82;;;;;;;;;;5075624;28;20390;-73
2022/08/28 00:34:06;;;;;;;20.98;15.18;;;;;;;;;;5054129;28;20016;-73
2022/08/28 00:36:32;;;;;;;20.90;16.08;;;;;;;;;;5054409;28;20398;-73
2022/08/28 00:38:59;;;;;;;22.90;17.75;;;;;;;;;;5071960;28;20051;-75
2022/08/28 00:41:25;;;;;;;22.33;17.38;;;;;;;;;;5072251;28;20032;-74
2022/08/28 00:44:04;;;;;;;20.95;17.35;;;;;;;;;;5054155;28;20513;-73
2022/08/28 00:46:30;;;;;;;21.33;17.02;;;;;;;;;;5073064;28;20017;-74
2022/08/28 00:48:56;;;;;;;22.83;16.65;;;;;;;;;;5072568;28;20027;-74
2022/08/28 00:54:07;;;;;;;25.63;18.77;;;;;;;;;;5073412;28;20055;-74
2022/08/28 00:56:33;;;;;;;28.38;20.85;;;;;;;;;;5075128;28;20051;-75
2022/08/28 00:59:02;;;;;;;25.67;19.95;;;;;;;;;;5058697;28;20025;-75
2022/08/28 01:01:28;;;;;;;31.15;20.98;;;;;;;;;;5083459;28;20024;-73
2022/08/28 01:03:54;;;;;;;33.42;21.27;;;;;;;;;;5082591;28;20044;-74
2022/08/28 01:06:20;;;;;;;32.92;22.85;;;;;;;;;;5079846;22;20496;-72
2022/08/28 01:08:47;;;;;;;33.97;21.95;;;;;;;;;;5038012;28;20056;-73
2022/08/28 01:11:14;;;;;;;29.63;21.90;;;;;;;;;;5033678;28;20029;-73
2022/08/28 01:13:45;;;;;;;32.80;22.85;;;;;;;;;;5034181;28;20061;-72
2022/08/28 01:16:12;;;;;;;33.70;23.27;;;;;;;;;;5042658;28;20116;-73
2022/08/28 01:18:39;;;;;;;35.83;24.00;;;;;;;;;;5057731;28;20056;-73
2022/08/28 01:21:24;;;;;;;36.10;24.10;;;;;;;;;;5052051;28;20025;-73
2022/08/28 01:23:58;;;;;;;46.50;26.85;;;;;;;;;;5051746;28;20386;-73
2022/08/28 01:26:24;;;;;;;42.03;26.60;;;;;;;;;;5037823;28;20040;-73
2022/08/28 01:28:51;;;;;;;40.05;27.10;;;;;;;;;;5051207;28;20029;-73
2022/08/28 01:31:17;;;;;;;51.00;29.15;;;;;;;;;;5051224;28;20064;-73
2022/08/28 01:33:44;;;;;;;38.28;25.77;;;;;;;;;;5049950;28;20025;-72
2022/08/28 01:36:11;;;;;;;38.60;26.00;;;;;;;;;;5051106;28;20102;-73
2022/08/28 01:38:38;;;;;;;45.08;29.10;;;;;;;;;;5051115;28;20101;-74
2022/08/28 01:41:04;;;;;;;52.20;31.00;;;;;;;;;;5051016;28;20029;-73
2022/08/28 01:43:30;;;;;;;45.35;29.95;;;;;;;;;;5049918;28;20075;-73
2022/08/28 01:46:03;;;;;;;45.88;30.63;;;;;;;;;;5051555;28;20025;-73
2022/08/28 01:48:30;;;;;;;54.30;31.45;;;;;;;;;;5050824;28;20084;-73
2022/08/28 01:50:56;;;;;;;45.10;28.10;;;;;;;;;;5051259;28;20036;-73
2022/08/28 01:53:24;;;;;;;49.80;29.63;;;;;;;;;;5050018;28;20032;-73
2022/08/28 01:55:50;;;;;;;48.55;30.63;;;;;;;;;;5049513;28;20025;-72
2022/08/28 01:58:16;;;;;;;44.20;29.02;;;;;;;;;;5051002;28;20104;-73
2022/08/28 02:00:42;;;;;;;40.58;27.65;;;;;;;;;;5049631;28;20029;-73
2022/08/28 02:03:09;;;;;;;52.72;29.85;;;;;;;;;;5050180;28;20020;-73
2022/08/28 02:05:36;;;;;;;48.83;30.15;;;;;;;;;;5050884;28;20120;-73
2022/08/28 02:08:03;;;;;;;49.22;30.20;;;;;;;;;;5049862;28;20059;-73
2022/08/28 02:10:31;;;;;;;47.30;31.27;;;;;;;;;;5051197;28;20028;-73
2022/08/28 02:12:57;;;;;;;40.22;29.17;;;;;;;;;;5050715;28;20495;-73
2022/08/28 02:15:25;;;;;;;42.78;29.25;;;;;;;;;;5050935;28;20063;-73
2022/08/28 02:17:51;;;;;;;43.08;28.70;;;;;;;;;;5049212;28;20064;-73
2022/08/28 02:20:17;;;;;;;60.72;31.33;;;;;;;;;;5050976;28;20082;-73
2022/08/28 02:22:43;;;;;;;53.03;31.55;;;;;;;;;;5050619;28;20100;-73
2022/08/28 02:25:10;;;;;;;60.65;32.47;;;;;;;;;;5050820;28;20542;-73
2022/08/28 02:27:37;;;;;;;54.42;31.30;;;;;;;;;;5050499;28;20021;-73
2022/08/28 02:30:04;;;;;;;50.08;31.02;;;;;;;;;;5050845;28;20036;-73
2022/08/28 02:32:30;;;;;;;48.63;31.10;;;;;;;;;;5050940;28;20029;-73
2022/08/28 02:34:56;;;;;;;54.00;32.33;;;;;;;;;;5051070;28;20095;-72
2022/08/28 02:37:23;;;;;;;44.75;28.75;;;;;;;;;;5051964;28;20021;-73
2022/08/28 02:39:49;;;;;;;47.33;29.58;;;;;;;;;;5055308;28;20070;-72
2022/08/28 02:42:16;;;;;;;54.55;32.08;;;;;;;;;;5054678;28;20025;-73
2022/08/28 02:44:42;;;;;;;42.55;29.85;;;;;;;;;;5054897;28;20071;-73
2022/08/28 02:47:08;;;;;;;40.83;30.67;;;;;;;;;;5054148;28;20064;-72
2022/08/28 02:49:34;;;;;;;54.70;32.95;;;;;;;;;;5054264;28;20071;-73
2022/08/28 02:52:00;;;;;;;46.35;31.30;;;;;;;;;;5054101;28;20456;-73
2022/08/28 02:54:26;;;;;;;44.60;29.95;;;;;;;;;;5054019;28;20028;-73
2022/08/28 02:56:53;;;;;;;44.75;30.38;;;;;;;;;;5054060;28;20291;-73
2022/08/28 02:59:19;;;;;;;42.13;29.33;;;;;;;;;;5053561;28;20013;-73
2022/08/28 03:01:45;;;;;;;45.83;29.38;;;;;;;;;;5054094;28;20471;-73
2022/08/28 03:04:11;;;;;;;39.53;27.85;;;;;;;;;;5053937;28;20071;-73
2022/08/28 03:06:37;;;;;;;46.67;29.05;;;;;;;;;;5053850;28;20036;-73
2022/08/28 03:09:04;;;;;;;46.10;28.90;;;;;;;;;;5053943;28;20025;-73
2022/08/28 03:11:30;;;;;;;41.58;28.73;;;;;;;;;;5052770;28;20025;-73
2022/08/28 03:13:56;;;;;;;47.05;30.02;;;;;;;;;;5054019;28;20021;-73
2022/08/28 03:16:24;;;;;;;50.28;29.60;;;;;;;;;;5052567;28;20333;-73
2022/08/28 03:18:50;;;;;;;43.03;29.27;;;;;;;;;;5053992;28;20021;-73
2022/08/28 03:21:16;;;;;;;43.20;27.05;;;;;;;;;;5053409;28;20036;-73
2022/08/28 03:23:42;;;;;;;42.13;26.85;;;;;;;;;;5053859;28;20067;-73
2022/08/28 03:26:10;;;;;;;46.35;25.40;;;;;;;;;;5053263;28;20482;-72
2022/08/28 03:28:38;;;;;;;37.53;24.33;;;;;;;;;;5053574;28;20421;-72
2022/08/28 03:31:04;;;;;;;42.35;25.33;;;;;;;;;;5053570;28;20025;-72
2022/08/28 03:33:31;;;;;;;35.67;22.90;;;;;;;;;;5053595;28;20021;-72
2022/08/28 03:35:58;;;;;;;31.95;24.40;;;;;;;;;;5053431;28;20091;-73
2022/08/28 03:38:24;;;;;;;34.40;22.13;;;;;;;;;;5053275;28;20032;-73
2022/08/28 03:40:50;;;;;;;30.05;20.75;;;;;;;;;;5053143;28;20027;-73
2022/08/28 03:43:18;;;;;;;25.27;19.75;;;;;;;;;;5053513;28;20398;-72
2022/08/28 03:45:51;;;;;;;26.10;19.50;;;;;;;;;;5053000;28;20029;-73
2022/08/28 03:48:18;;;;;;;26.48;19.88;;;;;;;;;;5052552;28;20033;-73
2022/08/28 03:50:44;;;;;;;28.55;21.10;;;;;;;;;;5052636;28;20075;-73
2022/08/28 03:53:11;;;;;;;35.03;18.88;;;;;;;;;;5052957;28;20428;-71
2022/08/28 03:55:39;;;;;;;29.23;18.48;;;;;;;;;;5052791;28;20025;-75
2022/08/28 03:58:05;;;;;;;517.00;301.98;;;;;;;;;;5053005;28;20029;-72
2022/08/28 04:00:31;;;;;;;152.77;72.90;;;;;;;;;;5052939;28;20398;-73
2022/08/28 04:02:57;;;;;;;45.40;25.60;;;;;;;;;;5052833;28;20069;-73
2022/08/28 04:05:23;;;;;;;30.58;18.25;;;;;;;;;;5053076;28;20067;-73
2022/08/28 04:07:50;;;;;;;27.58;18.73;;;;;;;;;;5052364;28;20503;-73
2022/08/28 04:10:16;;;;;;;30.27;18.13;;;;;;;;;;5053358;28;20116;-73
2022/08/28 04:12:43;;;;;;;29.23;17.90;;;;;;;;;;5052764;28;20036;-73
2022/08/28 04:15:11;;;;;;;32.97;18.50;;;;;;;;;;5051415;28;20021;-73
2022/08/28 04:17:38;;;;;;;32.53;19.15;;;;;;;;;;5052501;28;20024;-73
2022/08/28 04:20:04;;;;;;;30.23;19.63;;;;;;;;;;5052796;28;20029;-73
2022/08/28 04:22:30;;;;;;;219.55;120.95;;;;;;;;;;5052569;28;20540;-74
2022/08/28 04:24:56;;;;;;;97.57;45.45;;;;;;;;;;5053104;28;20036;-73
2022/08/28 04:27:22;;;;;;;194.32;83.07;;;;;;;;;;5052450;28;20449;-73
2022/08/28 04:29:48;;;;;;;86.63;41.00;;;;;;;;;;5052931;28;20020;-73
2022/08/28 04:32:14;;;;;;;72.80;31.13;;;;;;;;;;5052765;28;20068;-73
2022/08/28 04:34:40;;;;;;;39.97;23.13;;;;;;;;;;5055132;28;20025;-74
2022/08/28 04:37:06;;;;;;;30.88;19.77;;;;;;;;;;5056641;28;20021;-72
2022/08/28 04:39:33;;;;;;;26.10;18.02;;;;;;;;;;5057140;28;20070;-74
2022/08/28 04:41:59;;;;;;;26.35;19.05;;;;;;;;;;5055541;28;20025;-74
2022/08/28 04:44:25;;;;;;;29.50;19.10;;;;;;;;;;5057336;28;20025;-73
2022/08/28 04:46:52;;;;;;;22.58;16.73;;;;;;;;;;5052677;28;20029;-73
2022/08/28 04:49:18;;;;;;;29.55;17.30;;;;;;;;;;5051757;28;20539;-73
2022/08/28 04:51:44;;;;;;;28.60;16.63;;;;;;;;;;5052190;28;20033;-74
2022/08/28 04:54:10;;;;;;;24.60;15.93;;;;;;;;;;5051653;28;20406;-73
2022/08/28 04:56:36;;;;;;;21.88;15.40;;;;;;;;;;5051950;28;20575;-74
2022/08/28 04:59:03;;;;;;;20.70;14.48;;;;;;;;;;5051999;28;20021;-73
2022/08/28 05:01:29;;;;;;;26.33;15.43;;;;;;;;;;5051756;28;20100;-73
2022/08/28 05:03:57;;;;;;;22.20;13.43;;;;;;;;;;5051605;28;20025;-72
2022/08/28 05:06:25;;;;;;;21.75;13.88;;;;;;;;;;5051737;28;20108;-73
2022/08/28 05:08:51;;;;;;;23.13;13.15;;;;;;;;;;5051523;28;20048;-72
2022/08/28 05:11:20;;;;;;;19.42;12.05;;;;;;;;;;5038038;28;20017;-72
2022/08/28 05:13:46;;;;;;;27.63;12.13;;;;;;;;;;5051701;28;20021;-72
2022/08/28 05:16:13;;;;;;;18.02;10.93;;;;;;;;;;5050041;28;20043;-73
2022/08/28 05:18:39;;;;;;;18.80;10.50;;;;;;;;;;5049965;28;20025;-72
2022/08/28 05:21:10;;;;;;;36.13;21.35;;;;;;;;;;5051467;28;20048;-73
2022/08/28 05:23:36;;;;;;;63.58;31.52;;;;;;;;;;5051699;28;20111;-72
2022/08/28 05:26:02;;;;;;;35.17;16.30;;;;;;;;;;5050094;28;20063;-72
2022/08/28 05:28:28;;;;;;;19.35;10.00;;;;;;;;;;5052391;28;20028;-73
2022/08/28 05:30:54;;;;;;;21.77;10.07;;;;;;;;;;5051381;28;20563;-72
2022/08/28 05:33:20;;;;;;;20.75;9.20;;;;;;;;;;5051588;28;20025;-73
2022/08/28 05:35:46;;;;;;;24.55;9.57;;;;;;;;;;5051134;28;20021;-73
2022/08/28 05:38:14;;;;;;;20.38;8.35;;;;;;;;;;5051006;28;20024;-72
2022/08/28 05:40:49;;;;;;;25.30;10.02;;;;;;;;;;5051032;28;20108;-73
2022/08/28 05:43:16;;;;;;;20.73;9.35;;;;;;;;;;5051351;28;20029;-71
2022/08/28 05:45:42;;;;;;;18.15;8.30;;;;;;;;;;5051016;28;20021;-72
2022/08/28 05:48:09;;;;;;;21.17;8.93;;;;;;;;;;5051045;28;20128;-73
2022/08/28 05:50:38;;;;;;;18.77;8.85;;;;;;;;;;5051170;28;20017;-73
2022/08/28 05:53:05;;;;;;;15.35;7.63;;;;;;;;;;5051107;28;20517;-73
2022/08/28 05:55:31;;;;;;;15.68;7.60;;;;;;;;;;5051093;28;20029;-72
2022/08/28 05:58:27;;;;;;;25.83;8.50;;;;;;;;;;5049329;28;20078;-73
2022/08/28 06:00:43;;;;;;;17.95;8.00;;;;;;;;;;5046084;28;20021;-72
2022/08/28 06:03:09;;;;;;;20.10;6.82;;;;;;;;;;5051431;28;20434;-72
2022/08/28 06:05:36;;;;;;;20.17;7.65;;;;;;;;;;5049314;28;20033;-72
2022/08/28 06:08:03;;;;;;;19.63;8.40;;;;;;;;;;5050745;28;20025;-73
2022/08/28 06:10:28;;;;;;;28.38;9.68;;;;;;;;;;5049869;28;20387;-74
2022/08/28 06:12:55;;;;;;;19.70;8.13;;;;;;;;;;5052800;28;20025;-73
2022/08/28 06:15:20;;;;;;;14.80;5.75;;;;;;;;;;5053642;28;20021;-72
2022/08/28 06:17:47;;;;;;;26.48;6.13;;;;;;;;;;5054301;28;20028;-72
2022/08/28 06:20:13;;;;;;;15.20;5.85;;;;;;;;;;5055046;28;20352;-73
2022/08/28 06:22:39;;;;;;;16.63;6.60;;;;;;;;;;5054599;28;20051;-73
2022/08/28 06:25:06;;;;;;;14.40;5.40;;;;;;;;;;5054587;28;20055;-73
2022/08/28 06:27:35;;;;;;;17.33;6.85;;;;;;;;;;5054045;28;20099;-74
2022/08/28 06:30:02;;;;;;;64.43;31.10;;;;;;;;;;5054906;28;20021;-74
2022/08/28 06:32:28;;;;;;;111.00;52.95;;;;;;;;;;5052928;28;20036;-72
2022/08/28 06:34:54;;;;;;;213.55;111.75;;;;;;;;;;5054333;28;20491;-73
2022/08/28 06:37:20;;;;;;;36.05;16.77;;;;;;;;;;5053901;28;20025;-73
2022/08/28 06:39:46;;;;;;;19.60;7.47;;;;;;;;;;5054406;28;20028;-72
2022/08/28 06:42:12;;;;;;;53.70;22.05;;;;;;;;;;5054031;28;20065;-73
2022/08/28 06:44:38;;;;;;;12.85;5.15;;;;;;;;;;5040588;28;20024;-72
2022/08/28 06:47:05;;;;;;;12.25;4.72;;;;;;;;;;5054201;28;20033;-73
2022/08/28 06:49:31;;;;;;;20.25;4.70;;;;;;;;;;5052685;28;20086;-73
2022/08/28 06:51:57;;;;;;;16.00;4.60;;;;;;;;;;5054173;28;20056;-75
2022/08/28 06:54:22;;;;;;;151.55;67.80;;;;;;;;;;5053675;28;20471;-73
2022/08/28 06:56:49;;;;;;;14.77;5.15;;;;;;;;;;5054099;28;20075;-73
2022/08/28 06:59:14;;;;;;;288.17;163.65;;;;;;;;;;5053400;28;20090;-73
2022/08/28 07:01:40;;;;;;;19.15;7.40;;;;;;;;;;5054235;28;20104;-73
2022/08/28 07:04:08;;;;;;;10.77;3.80;;;;;;;;;;5054071;28;20031;-73
2022/08/28 07:06:36;;;;;;;13.80;3.63;;;;;;;;;;5090867;22;20532;-72
2022/08/28 07:09:02;;;;;;;15.15;4.53;;;;;;;;;;5072737;28;20048;-74
2022/08/28 07:11:30;;;;;;;25.05;9.73;;;;;;;;;;5074052;28;20113;-74
2022/08/28 07:13:56;;;;;;;23.02;4.25;;;;;;;;;;5055658;28;20025;-73
2022/08/28 07:16:24;;;;;;;16.30;4.10;;;;;;;;;;5073752;28;20024;-72
2022/08/28 07:18:50;;;;;;;20.60;4.32;;;;;;;;;;5073638;28;20374;-74
2022/08/28 07:21:16;;;;;;;14.50;4.45;;;;;;;;;;5073481;28;20028;-75
2022/08/28 07:23:43;;;;;;;13.10;3.63;;;;;;;;;;5072358;28;20024;-74
2022/08/28 07:26:10;;;;;;;18.00;3.90;;;;;;;;;;5073673;28;20098;-74
2022/08/28 07:28:37;;;;;;;11.15;3.30;;;;;;;;;;5073219;28;20029;-73
2022/08/28 07:31:05;;;;;;;15.20;4.78;;;;;;;;;;5055512;28;20029;-74
2022/08/28 07:33:31;;;;;;;17.83;5.70;;;;;;;;;;5073347;28;20024;-74
2022/08/28 07:35:58;;;;;;;31.60;13.13;;;;;;;;;;5055328;28;20048;-75
2022/08/28 07:38:25;;;;;;;367.42;232.52;;;;;;;;;;5072992;28;20131;-74
2022/08/28 07:40:51;;;;;;;18.13;7.53;;;;;;;;;;5073197;28;20016;-74
2022/08/28 07:46:05;;;;;;;11.63;3.53;;;;;;;;;;5073175;28;20448;-73
2022/08/28 07:48:32;;;;;;;17.63;4.07;;;;;;;;;;5073568;28;20025;-74
2022/08/28 07:50:58;;;;;;;19.35;3.83;;;;;;;;;;5073454;28;20450;-73
2022/08/28 07:53:24;;;;;;;9.23;3.45;;;;;;;;;;5073465;28;20124;-73
2022/08/28 07:55:50;;;;;;;11.05;3.28;;;;;;;;;;5073292;28;20056;-74
2022/08/28 07:58:16;;;;;;;15.43;4.05;;;;;;;;;;5072893;28;20055;-72
2022/08/28 08:00:42;;;;;;;10.30;3.72;;;;;;;;;;5073031;28;20552;-74
2022/08/28 08:03:09;;;;;;;16.45;3.60;;;;;;;;;;5072923;28;20036;-74
2022/08/28 08:05:35;;;;;;;21.25;3.90;;;;;;;;;;5072512;28;20490;-74
2022/08/28 08:08:00;;;;;;;11.68;3.92;;;;;;;;;;5072657;28;20039;-74
2022/08/28 08:10:26;;;;;;;14.27;4.35;;;;;;;;;;5073085;28;20024;-75
2022/08/28 08:12:52;;;;;;;16.08;4.47;;;;;;;;;;5072472;28;20390;-75
2022/08/28 08:15:18;;;;;;;14.15;3.90;;;;;;;;;;5072805;28;20031;-76
2022/08/28 08:17:44;;;;;;;10.68;3.70;;;;;;;;;;5071949;28;20020;-74
2022/08/28 08:20:11;;;;;;;15.38;3.97;;;;;;;;;;5072691;28;20012;-74
2022/08/28 08:22:37;;;;;;;8.55;3.08;;;;;;;;;;5072534;28;20032;-74
2022/08/28 08:25:04;;;;;;;13.45;4.10;;;;;;;;;;5072605;28;20028;-75
2022/08/28 08:27:31;;;;;;;14.00;3.55;;;;;;;;;;5071984;28;20025;-74
2022/08/28 08:29:57;;;;;;;12.45;3.50;;;;;;;;;;5054380;28;20046;-75
2022/08/28 08:32:23;;;;;;;21.17;4.75;;;;;;;;;;5070436;28;20104;-73
2022/08/28 08:34:52;;;;;;;9.70;3.10;;;;;;;;;;5053541;28;20115;-75
2022/08/28 08:37:18;;;;;;;26.13;12.07;;;;;;;;;;5070647;28;20082;-73
2022/08/28 08:39:44;;;;;;;46.05;23.80;;;;;;;;;;5057016;28;20512;-74
2022/08/28 08:42:18;;;;;;;199.18;109.25;;;;;;;;;;5071787;28;20029;-75
2022/08/28 08:44:46;;;;;;;19.10;5.43;;;;;;;;;;5071962;28;20024;-74
2022/08/28 08:47:18;;;;;;;11.70;3.67;;;;;;;;;;5071692;28;20344;-73
2022/08/28 08:49:58;;;;;;;14.13;4.43;;;;;;;;;;5059583;28;20016;-72
2022/08/28 08:52:33;;;;;;;13.00;4.35;;;;;;;;;;5071258;28;20025;-74
2022/08/28 08:54:59;;;;;;;9.18;3.63;;;;;;;;;;5053358;28;20029;-73
2022/08/28 08:57:25;;;;;;;9.68;3.67;;;;;;;;;;5065928;28;20013;-72
2022/08/28 08:59:51;;;;;;;10.82;3.88;;;;;;;;;;5071999;28;20013;-74
2022/08/28 09:02:21;;;;;;;8.40;3.35;;;;;;;;;;5071432;28;20371;-75
2022/08/28 09:04:50;;;;;;;14.70;4.13;;;;;;;;;;5053995;28;20122;-73
2022/08/28 09:07:18;;;;;;;16.10;3.85;;;;;;;;;;5071787;28;20028;-73
2022/08/28 09:09:47;;;;;;;15.57;3.80;;;;;;;;;;5072703;28;20031;-74
2022/08/28 09:12:16;;;;;;;119.32;56.97;;;;;;;;;;5072347;28;20110;-74
2022/08/28 09:15:06;;;;;;;172.38;89.05;;;;;;;;;;5072843;28;20016;-73
2022/08/28 09:17:36;;;;;;;46.35;22.15;;;;;;;;;;5075104;28;20045;-73
2022/08/28 09:20:03;;;;;;;13.50;3.58;;;;;;;;;;5087527;28;20482;-72
2022/08/28 09:22:29;;;;;;;13.70;3.78;;;;;;;;;;5083517;28;20108;-75
2022/08/28 09:24:55;;;;;;;9.27;3.65;;;;;;;;;;5081390;28;20027;-74
2022/08/28 09:27:24;;;;;;;15.00;4.40;;;;;;;;;;5082448;28;20035;-74
2022/08/28 09:29:56;;;;;;;8.27;3.65;;;;;;;;;;5087823;28;20031;-73
2022/08/28 09:32:30;;;;;;;55.53;24.27;;;;;;;;;;5085491;28;20044;-74
2022/08/28 09:35:05;;;;;;;12.90;3.95;;;;;;;;;;5085622;28;20013;-73
2022/08/28 09:37:32;;;;;;;52.83;21.63;;;;;;;;;;5076727;28;20024;-73
2022/08/28 09:40:13;;;;;;;16.25;4.22;;;;;;;;;;5074629;28;20103;-74
2022/08/28 09:45:25;;;;;;;10.45;3.70;;;;;;;;;;5073340;28;20116;-74
2022/08/28 09:47:55;;;;;;;14.07;4.82;;;;;;;;;;5052158;28;20029;-74
2022/08/28 09:50:32;;;;;;;11.68;4.30;;;;;;;;;;5071520;28;20024;-73
2022/08/28 09:53:12;;;;;;;11.50;3.92;;;;;;;;;;5057659;28;20029;-73
2022/08/28 09:55:57;;;;;;;11.60;4.07;;;;;;;;;;5070927;28;20027;-74
2022/08/28 09:58:28;;;;;;;11.90;3.55;;;;;;;;;;5070805;28;20025;-72
2022/08/28 10:01:04;;;;;;;12.50;4.03;;;;;;;;;;5071454;28;20409;-73
2022/08/28 10:03:34;;;;;;;13.63;4.05;;;;;;;;;;5053127;28;20399;-73
2022/08/28 10:06:14;;;;;;;11.90;4.28;;;;;;;;;;5070670;28;20048;-73
2022/08/28 10:08:43;;;;;;;16.48;4.15;;;;;;;;;;5071006;28;20066;-73
2022/08/28 10:11:21;;;;;;;13.48;4.30;;;;;;;;;;5071033;28;20021;-73
2022/08/28 10:13:59;;;;;;;19.38;5.05;;;;;;;;;;5071175;28;20028;-73
2022/08/28 10:16:27;;;;;;;11.48;4.05;;;;;;;;;;5058845;28;20047;-73
2022/08/28 10:18:53;;;;;;;12.52;4.28;;;;;;;;;;5053125;28;20021;-71
2022/08/28 10:21:19;;;;;;;11.52;4.32;;;;;;;;;;5071453;28;20021;-75
2022/08/28 10:24:04;;;;;;;13.32;3.92;;;;;;;;;;5071167;28;20036;-73
2022/08/28 10:26:33;;;;;;;12.38;4.22;;;;;;;;;;5059485;28;20025;-73
2022/08/28 10:29:11;;;;;;;12.52;3.90;;;;;;;;;;5070685;28;20035;-74
2022/08/28 10:31:53;;;;;;;11.38;4.03;;;;;;;;;;5071324;28;20033;-73
2022/08/28 10:34:22;;;;;;;53.50;19.58;;;;;;;;;;5070721;28;20070;-74
2022/08/28 10:37:08;;;;;;;12.13;3.72;;;;;;;;;;5071060;28;20028;-74
2022/08/28 10:39:37;;;;;;;10.68;4.05;;;;;;;;;;5053551;28;20047;-74
2022/08/28 10:42:04;;;;;;;13.45;4.13;;;;;;;;;;5070927;28;20025;-74
2022/08/28 10:45:07;;;;;;;11.68;4.00;;;;;;;;;;5071001;28;20115;-74
2022/08/28 10:47:35;;;;;;;12.60;4.45;;;;;;;;;;5008374;28;20061;-72
2022/08/28 10:50:06;;;;;;;14.50;4.57;;;;;;;;;;5059898;28;20116;-75
2022/08/28 10:52:32;;;;;;;;;;;;;;;;;;5071203;28;20116;-73
2022/08/28 10:55:04;;;;;;;12.80;3.50;;;;;;;;;;5070593;28;19940;-74
2022/08/28 10:57:30;;;;;;;7.20;3.25;;;;;;;;;;5070240;28;20023;-73
2022/08/28 10:59:57;;;;;;;12.73;4.53;;;;;;;;;;5074143;28;20516;-73
2022/08/28 11:02:25;;;;;;;11.60;4.07;;;;;;;;;;5074264;28;20029;-73
2022/08/28 11:04:52;;;;;;;27.42;10.95;;;;;;;;;;5074002;28;20029;-75
2022/08/28 11:07:28;;;;;;;8.55;3.63;;;;;;;;;;5055949;28;20035;-74
2022/08/28 11:09:54;;;;;;;19.40;7.00;;;;;;;;;;5074132;28;20074;-73
2022/08/28 11:12:21;;;;;;;13.32;4.47;;;;;;;;;;5074056;28;20436;-74
2022/08/28 11:14:48;;;;;;;10.00;3.95;;;;;;;;;;5074273;28;20020;-74
2022/08/28 11:17:26;;;;;;;15.32;4.65;;;;;;;;;;5074124;28;20020;-74
2022/08/28 11:19:52;;;;;;;15.93;4.40;;;;;;;;;;5074505;28;20479;-74
2022/08/28 11:22:18;;;;;;;14.25;4.28;;;;;;;;;;5074386;28;20029;-73
2022/08/28 11:24:47;;;;;;;18.95;4.18;;;;;;;;;;5073822;28;20020;-73
2022/08/28 11:27:16;;;;;;;12.70;4.30;;;;;;;;;;5073723;28;20024;-74
2022/08/28 11:29:57;;;;;;;9.20;3.60;;;;;;;;;;5074013;28;20017;-73
2022/08/28 11:32:23;;;;;;;;;;;;;;;;;;5074009;28;20021;-74
2022/08/28 11:34:59;;;;;;;9.82;3.42;;;;;;;;;;5072586;28;19926;-75
2022/08/28 11:37:54;;;;;;;11.27;4.07;;;;;;;;;;5073760;28;20021;-74
2022/08/28 11:40:32;;;;;;;10.02;4.18;;;;;;;;;;5060523;28;20036;-71
2022/08/28 11:43:13;;;;;;;10.13;3.88;;;;;;;;;;5073734;28;20036;-73
2022/08/28 11:45:42;;;;;;;13.00;4.18;;;;;;;;;;5055278;28;20025;-73
2022/08/28 11:48:28;;;;;;;10.13;4.10;;;;;;;;;;5073234;28;20406;-74
2022/08/28 11:51:05;;;;;;;10.48;3.72;;;;;;;;;;5062506;28;20036;-73
2022/08/28 11:53:31;;;;;;;11.05;3.30;;;;;;;;;;5073309;28;20032;-74
2022/08/28 11:55:57;;;;;;;10.40;3.40;;;;;;;;;;5073527;28;20021;-73
2022/08/28 11:58:23;;;;;;;11.32;3.58;;;;;;;;;;5072951;28;20016;-74
2022/08/28 12:00:56;;;;;;;9.43;3.75;;;;;;;;;;5073577;28;20546;-73
2022/08/28 12:03:25;;;;;;;11.52;4.07;;;;;;;;;;5073473;28;20111;-74
2022/08/28 12:05:56;;;;;;;6.18;3.08;;;;;;;;;;5072778;28;20028;-74
2022/08/28 12:08:41;;;;;;;10.07;3.50;;;;;;;;;;5055120;28;20565;-73
2022/08/28 12:11:07;;;;;;;12.70;3.83;;;;;;;;;;5072319;28;20479;-71
2022/08/28 12:13:51;;;;;;;7.88;3.42;;;;;;;;;;5077493;28;20020;-73
2022/08/28 12:16:18;;;;;;;11.55;3.50;;;;;;;;;;5080614;28;20029;-72
2022/08/28 12:18:47;;;;;;;12.05;3.38;;;;;;;;;;5063550;28;20084;-74
2022/08/28 12:21:16;;;;;;;9.82;3.65;;;;;;;;;;5075386;28;20028;-74
2022/08/28 12:23:59;;;;;;;10.52;3.38;;;;;;;;;;5074007;28;20044;-74
2022/08/28 12:26:37;;;;;;;11.02;3.65;;;;;;;;;;5060773;28;20433;-74
2022/08/28 12:29:19;;;;;;;9.05;3.33;;;;;;;;;;5072585;28;20032;-73
2022/08/28 12:32:10;;;;;;;10.43;3.80;;;;;;;;;;5054917;28;20024;-73
2022/08/28 12:34:54;;;;;;;8.98;3.50;;;;;;;;;;5072505;28;20073;-73
2022/08/28 12:37:44;;;;;;;10.07;3.78;;;;;;;;;;5071996;28;20021;-74
2022/08/28 12:40:29;;;;;;;11.30;3.78;;;;;;;;;;5073001;28;20031;-73
2022/08/28 12:42:55;;;;;;;9.45;3.80;;;;;;;;;;5072728;28;20028;-72
2022/08/28 12:45:26;;;;;;;13.77;3.83;;;;;;;;;;5073028;28;20111;-73
2022/08/28 12:47:54;;;;;;;9.77;4.05;;;;;;;;;;5072212;28;20544;-73
2022/08/28 12:50:39;;;;;;;15.45;4.55;;;;;;;;;;5072864;28;20033;-74
2022/08/28 12:53:06;;;;;;;13.38;4.82;;;;;;;;;;5060143;28;20731;-72
2022/08/28 12:55:33;;;;;;;10.07;3.95;;;;;;;;;;5072106;28;20029;-73
2022/08/28 12:57:59;;;;;;;8.57;3.67;;;;;;;;;;5059118;28;20025;-73
2022/08/28 13:00:30;;;;;;;10.73;3.80;;;;;;;;;;5072382;28;20021;-73
2022/08/28 13:02:56;;;;;;;13.57;4.43;;;;;;;;;;5054393;28;20483;-74
2022/08/28 13:05:25;;;;;;;10.30;3.58;;;;;;;;;;5094064;22;20058;-74
2022/08/28 13:07:55;;;;;;;48.72;25.25;;;;;;;;;;5032515;28;20091;-73
2022/08/28 13:10:23;;;;;;;11.90;4.63;;;;;;;;;;5032548;28;20028;-74
2022/08/28 13:12:54;;;;;;;20.52;9.45;;;;;;;;;;5033722;28;20030;-73
2022/08/28 13:15:38;;;;;;;10.18;3.17;;;;;;;;;;5034458;28;20025;-73
2022/08/28 13:18:07;;;;;;;7.95;3.63;;;;;;;;;;5020393;28;20049;-73
2022/08/28 13:20:35;;;;;;;12.35;3.60;;;;;;;;;;5033544;28;20025;-73
2022/08/28 13:23:01;;;;;;;12.55;3.60;;;;;;;;;;5033535;28;20037;-73
2022/08/28 13:25:32;;;;;;;9.25;3.55;;;;;;;;;;5032547;28;20048;-74
2022/08/28 13:27:59;;;;;;;9.00;3.50;;;;;;;;;;5032971;28;20052;-74
2022/08/28 13:30:32;;;;;;;7.65;3.20;;;;;;;;;;5032653;28;20267;-73
2022/08/28 13:32:58;;;;;;;7.72;3.60;;;;;;;;;;5034556;28;20029;-74
2022/08/28 13:35:24;;;;;;;8.93;3.60;;;;;;;;;;5035407;28;20032;-74
2022/08/28 13:37:52;;;;;;;9.45;3.10;;;;;;;;;;5034967;28;20092;-73
2022/08/28 13:40:19;;;;;;;13.32;3.60;;;;;;;;;;5035059;28;20443;-73
2022/08/28 13:42:46;;;;;;;12.32;3.33;;;;;;;;;;5034163;28;20029;-74
2022/08/28 13:45:12;;;;;;;9.07;2.80;;;;;;;;;;5032619;28;20140;-74
2022/08/28 13:47:38;;;;;;;10.55;3.85;;;;;;;;;;5031230;28;20022;-74
2022/08/28 13:50:05;;;;;;;10.13;4.05;;;;;;;;;;5031634;28;20025;-73
2022/08/28 13:52:31;;;;;;;10.77;3.83;;;;;;;;;;5031014;28;20119;-73
2022/08/28 13:54:57;;;;;;;12.27;3.72;;;;;;;;;;5031338;28;20392;-73
2022/08/28 13:57:23;;;;;;;10.02;3.70;;;;;;;;;;5029637;28;20030;-73
2022/08/28 13:59:49;;;;;;;9.38;3.30;;;;;;;;;;5031005;28;20020;-73
2022/08/28 14:05:00;;;;;;;9.32;3.30;;;;;;;;;;5031525;28;20095;-73
2022/08/28 14:07:28;;;;;;;13.65;3.33;;;;;;;;;;5030343;28;20037;-73
2022/08/28 14:09:54;;;;;;;12.25;3.58;;;;;;;;;;5030199;28;20025;-74
2022/08/28 14:12:20;;;;;;;11.82;3.53;;;;;;;;;;5030925;28;20079;-73
2022/08/28 14:14:47;;;;;;;10.18;3.58;;;;;;;;;;5031218;28;20100;-73
2022/08/28 14:17:13;;;;;;;10.75;3.53;;;;;;;;;;5030957;28;20021;-73
2022/08/28 14:19:39;;;;;;;8.73;3.63;;;;;;;;;;5026608;28;20029;-74
2022/08/28 14:22:05;;;;;;;8.75;2.85;;;;;;;;;;5024146;28;20033;-74
2022/08/28 14:24:31;;;;;;;11.02;3.72;;;;;;;;;;5030850;28;20028;-74
2022/08/28 14:26:58;;;;;;;9.50;3.25;;;;;;;;;;5031217;28;20029;-73
2022/08/28 14:29:24;;;;;;;8.90;3.55;;;;;;;;;;5031002;28;20071;-73
2022/08/28 14:31:50;;;;;;;7.95;3.10;;;;;;;;;;5030985;28;20028;-75
2022/08/28 14:34:21;;;;;;;9.05;3.83;;;;;;;;;;5033280;28;20479;-72
2022/08/28 14:36:49;;;;;;;5.35;2.65;;;;;;;;;;5034621;28;20020;-72
2022/08/28 14:39:16;;;;;;;7.45;2.80;;;;;;;;;;5034109;28;20040;-73
2022/08/28 14:41:46;;;;;;;9.63;3.30;;;;;;;;;;5034837;28;20025;-73
2022/08/28 14:44:12;;;;;;;8.93;3.50;;;;;;;;;;5034627;28;20088;-73
2022/08/28 14:46:38;;;;;;;6.53;2.92;;;;;;;;;;5034910;28;20031;-73
2022/08/28 14:49:06;;;;;;;9.00;3.05;;;;;;;;;;5034337;28;20032;-73